sensor_id;sensor_type;location;lat;lon;timestamp;P1;durP1;ratioP1;P2;durP2;ratioP2
77870;SDS011;67067;46.850;7.578;2023-08-30T00:02:01;2.30;;;2.08;;
77870;SDS011;67067;46.850;7.578;2023-08-30T00:03:05;1.85;;;1.75;;
77870;SDS011;67067;46.850;7.578;2023-08-30T00:04:07;3.58;;;2.00;;
77870;SDS011;67067;46.850;7.578;2023-08-30T00:05:09;2.20;;;1.75;;
77870;SDS011;67067;46.850;7.578;2023-08-30T00:06:11;3.03;;;2.15;;
77870;SDS011;67067;46.850;7.578;2023-08-30T00:07:15;2.42;;;1.83;;
77870;SDS011;67067;46.850;7.578;2023-08-30T00:08:17;2.70;;;1.90;;
77870;SDS011;67067;46.850;7.578;2023-08-30T00:09:20;3.42;;;2.10;;
77870;SDS011;67067;46.850;7.578;2023-08-30T00:10:28;2.22;;;1.83;;
77870;SDS011;67067;46.850;7.578;2023-08-30T00:12:36;1.63;;;1.50;;
77870;SDS011;67067;46.850;7.578;2023-08-30T00:14:39;3.58;;;2.00;;
77870;SDS011;67067;46.850;7.578;2023-08-30T00:15:45;5.50;;;2.22;;
77870;SDS011;67067;46.850;7.578;2023-08-30T00:16:47;3.35;;;2.05;;
77870;SDS011;67067;46.850;7.578;2023-08-30T00:18:53;2.35;;;2.17;;
77870;SDS011;67067;46.850;7.578;2023-08-30T00:20:57;1.85;;;1.75;;
77870;SDS011;67067;46.850;7.578;2023-08-30T00:21:59;3.33;;;1.85;;
77870;SDS011;67067;46.850;7.578;2023-08-30T00:23:00;2.67;;;1.55;;
77870;SDS011;67067;46.850;7.578;2023-08-30T00:25:04;1.98;;;1.88;;
77870;SDS011;67067;46.850;7.578;2023-08-30T00:27:09;1.77;;;1.67;;
77870;SDS011;67067;46.850;7.578;2023-08-30T00:28:14;3.35;;;1.73;;
77870;SDS011;67067;46.850;7.578;2023-08-30T00:29:16;2.72;;;2.45;;
77870;SDS011;67067;46.850;7.578;2023-08-30T00:31:19;2.30;;;2.10;;
77870;SDS011;67067;46.850;7.578;2023-08-30T00:32:21;4.03;;;2.50;;
77870;SDS011;67067;46.850;7.578;2023-08-30T00:33:23;1.73;;;1.63;;
77870;SDS011;67067;46.850;7.578;2023-08-30T00:35:27;1.67;;;1.58;;
77870;SDS011;67067;46.850;7.578;2023-08-30T00:37:30;2.10;;;2.00;;
77870;SDS011;67067;46.850;7.578;2023-08-30T00:39:37;2.50;;;2.17;;
77870;SDS011;67067;46.850;7.578;2023-08-30T00:40:39;1.70;;;1.60;;
77870;SDS011;67067;46.850;7.578;2023-08-30T00:41:41;2.30;;;2.10;;
77870;SDS011;67067;46.850;7.578;2023-08-30T00:42:45;1.60;;;1.50;;
77870;SDS011;67067;46.850;7.578;2023-08-30T00:43:47;3.38;;;1.75;;
77870;SDS011;67067;46.850;7.578;2023-08-30T00:45:50;3.33;;;1.95;;
77870;SDS011;67067;46.850;7.578;2023-08-30T00:46:54;1.63;;;1.52;;
77870;SDS011;67067;46.850;7.578;2023-08-30T00:48:59;1.75;;;1.65;;
77870;SDS011;67067;46.850;7.578;2023-08-30T00:50:02;1.70;;;1.60;;
77870;SDS011;67067;46.850;7.578;2023-08-30T00:51:03;1.98;;;1.85;;
77870;SDS011;67067;46.850;7.578;2023-08-30T00:52:08;1.70;;;1.60;;
77870;SDS011;67067;46.850;7.578;2023-08-30T00:53:15;4.10;;;2.00;;
77870;SDS011;67067;46.850;7.578;2023-08-30T00:54:18;2.00;;;1.90;;
77870;SDS011;67067;46.850;7.578;2023-08-30T00:56:22;1.50;;;1.40;;
77870;SDS011;67067;46.850;7.578;2023-08-30T00:57:24;3.13;;;1.83;;
77870;SDS011;67067;46.850;7.578;2023-08-30T00:58:26;2.70;;;1.77;;
77870;SDS011;67067;46.850;7.578;2023-08-30T00:59:28;2.05;;;1.95;;
77870;SDS011;67067;46.850;7.578;2023-08-30T01:00:32;2.08;;;1.65;;
77870;SDS011;67067;46.850;7.578;2023-08-30T01:01:34;1.90;;;1.65;;
77870;SDS011;67067;46.850;7.578;2023-08-30T01:02:36;3.70;;;1.85;;
77870;SDS011;67067;46.850;7.578;2023-08-30T01:03:38;3.80;;;1.95;;
77870;SDS011;67067;46.850;7.578;2023-08-30T01:04:40;1.92;;;1.83;;
77870;SDS011;67067;46.850;7.578;2023-08-30T01:05:42;2.45;;;1.90;;
77870;SDS011;67067;46.850;7.578;2023-08-30T01:06:44;2.95;;;2.10;;
77870;SDS011;67067;46.850;7.578;2023-08-30T01:07:46;2.70;;;2.22;;
77870;SDS011;67067;46.850;7.578;2023-08-30T01:08:50;2.10;;;2.00;;
77870;SDS011;67067;46.850;7.578;2023-08-30T01:09:53;1.70;;;1.60;;
77870;SDS011;67067;46.850;7.578;2023-08-30T01:12:21;3.00;;;2.00;;
77870;SDS011;67067;46.850;7.578;2023-08-30T01:13:50;2.00;;;1.70;;
77870;SDS011;67067;46.850;7.578;2023-08-30T01:15:02;2.85;;;2.00;;
77870;SDS011;67067;46.850;7.578;2023-08-30T01:16:11;2.25;;;2.05;;
77870;SDS011;67067;46.850;7.578;2023-08-30T01:17:13;1.70;;;1.50;;
77870;SDS011;67067;46.850;7.578;2023-08-30T01:18:18;2.80;;;2.28;;
77870;SDS011;67067;46.850;7.578;2023-08-30T01:19:36;1.85;;;1.70;;
77870;SDS011;67067;46.850;7.578;2023-08-30T01:22:00;5.13;;;2.05;;
77870;SDS011;67067;46.850;7.578;2023-08-30T01:23:10;1.92;;;1.83;;
77870;SDS011;67067;46.850;7.578;2023-08-30T01:24:26;1.95;;;1.75;;
77870;SDS011;67067;46.850;7.578;2023-08-30T01:29:05;3.72;;;1.70;;
77870;SDS011;67067;46.850;7.578;2023-08-30T01:30:11;6.53;;;2.13;;
77870;SDS011;67067;46.850;7.578;2023-08-30T01:31:13;1.88;;;1.77;;
77870;SDS011;67067;46.850;7.578;2023-08-30T01:32:17;2.25;;;1.90;;
77870;SDS011;67067;46.850;7.578;2023-08-30T01:33:21;2.75;;;2.25;;
77870;SDS011;67067;46.850;7.578;2023-08-30T01:34:25;2.65;;;2.40;;
77870;SDS011;67067;46.850;7.578;2023-08-30T01:35:27;3.13;;;2.08;;
77870;SDS011;67067;46.850;7.578;2023-08-30T01:36:34;3.92;;;2.40;;
77870;SDS011;67067;46.850;7.578;2023-08-30T01:37:37;1.75;;;1.65;;
77870;SDS011;67067;46.850;7.578;2023-08-30T01:38:40;2.17;;;1.95;;
77870;SDS011;67067;46.850;7.578;2023-08-30T01:39:43;1.77;;;1.67;;
77870;SDS011;67067;46.850;7.578;2023-08-30T01:40:48;4.00;;;2.03;;
77870;SDS011;67067;46.850;7.578;2023-08-30T01:41:53;2.67;;;2.10;;
77870;SDS011;67067;46.850;7.578;2023-08-30T01:43:00;3.08;;;2.20;;
77870;SDS011;67067;46.850;7.578;2023-08-30T01:44:09;3.17;;;2.03;;
77870;SDS011;67067;46.850;7.578;2023-08-30T01:45:12;1.92;;;1.83;;
77870;SDS011;67067;46.850;7.578;2023-08-30T01:46:17;2.50;;;2.30;;
77870;SDS011;67067;46.850;7.578;2023-08-30T01:47:20;2.10;;;2.00;;
77870;SDS011;67067;46.850;7.578;2023-08-30T01:48:27;2.38;;;2.17;;
77870;SDS011;67067;46.850;7.578;2023-08-30T01:49:30;2.22;;;2.13;;
77870;SDS011;67067;46.850;7.578;2023-08-30T01:50:33;3.08;;;2.30;;
77870;SDS011;67067;46.850;7.578;2023-08-30T01:51:36;2.30;;;2.10;;
77870;SDS011;67067;46.850;7.578;2023-08-30T01:52:38;3.67;;;2.28;;
77870;SDS011;67067;46.850;7.578;2023-08-30T01:53:42;2.30;;;2.20;;
77870;SDS011;67067;46.850;7.578;2023-08-30T01:54:47;2.20;;;2.00;;
77870;SDS011;67067;46.850;7.578;2023-08-30T01:55:52;3.75;;;2.17;;
77870;SDS011;67067;46.850;7.578;2023-08-30T01:56:54;2.75;;;2.20;;
77870;SDS011;67067;46.850;7.578;2023-08-30T01:57:58;2.67;;;2.00;;
77870;SDS011;67067;46.850;7.578;2023-08-30T01:59:02;2.83;;;2.08;;
77870;SDS011;67067;46.850;7.578;2023-08-30T02:01:16;2.17;;;2.05;;
77870;SDS011;67067;46.850;7.578;2023-08-30T02:02:18;2.28;;;2.08;;
77870;SDS011;67067;46.850;7.578;2023-08-30T02:03:19;3.42;;;2.08;;
77870;SDS011;67067;46.850;7.578;2023-08-30T02:05:24;2.78;;;1.90;;
77870;SDS011;67067;46.850;7.578;2023-08-30T02:06:33;3.58;;;2.58;;
77870;SDS011;67067;46.850;7.578;2023-08-30T02:07:46;3.60;;;1.88;;
77870;SDS011;67067;46.850;7.578;2023-08-30T02:09:21;2.85;;;1.80;;
77870;SDS011;67067;46.850;7.578;2023-08-30T02:10:28;1.63;;;1.52;;
77870;SDS011;67067;46.850;7.578;2023-08-30T02:11:36;2.30;;;1.80;;
77870;SDS011;67067;46.850;7.578;2023-08-30T02:12:41;1.92;;;1.75;;
77870;SDS011;67067;46.850;7.578;2023-08-30T02:13:48;3.30;;;2.05;;
77870;SDS011;67067;46.850;7.578;2023-08-30T02:14:54;1.60;;;1.50;;
77870;SDS011;67067;46.850;7.578;2023-08-30T02:15:56;1.63;;;1.52;;
77870;SDS011;67067;46.850;7.578;2023-08-30T02:17:02;1.90;;;1.80;;
77870;SDS011;67067;46.850;7.578;2023-08-30T02:18:04;2.10;;;2.00;;
77870;SDS011;67067;46.850;7.578;2023-08-30T02:19:07;1.65;;;1.60;;
77870;SDS011;67067;46.850;7.578;2023-08-30T02:20:09;4.70;;;1.85;;
77870;SDS011;67067;46.850;7.578;2023-08-30T02:21:14;1.98;;;1.77;;
77870;SDS011;67067;46.850;7.578;2023-08-30T02:22:16;3.47;;;3.17;;
77870;SDS011;67067;46.850;7.578;2023-08-30T02:23:17;10.55;;;5.35;;
77870;SDS011;67067;46.850;7.578;2023-08-30T02:24:24;25.25;;;12.35;;
77870;SDS011;67067;46.850;7.578;2023-08-30T02:26:28;42.30;;;23.10;;
77870;SDS011;67067;46.850;7.578;2023-08-30T02:27:31;32.13;;;17.10;;
77870;SDS011;67067;46.850;7.578;2023-08-30T02:28:33;23.00;;;9.95;;
77870;SDS011;67067;46.850;7.578;2023-08-30T02:29:39;16.10;;;7.43;;
77870;SDS011;67067;46.850;7.578;2023-08-30T02:31:45;9.40;;;4.03;;
77870;SDS011;67067;46.850;7.578;2023-08-30T02:33:50;6.22;;;2.90;;
77870;SDS011;67067;46.850;7.578;2023-08-30T02:34:52;4.38;;;2.38;;
77870;SDS011;67067;46.850;7.578;2023-08-30T02:35:54;3.85;;;2.35;;
77870;SDS011;67067;46.850;7.578;2023-08-30T02:36:58;2.78;;;1.73;;
77870;SDS011;67067;46.850;7.578;2023-08-30T02:38:02;1.95;;;1.85;;
77870;SDS011;67067;46.850;7.578;2023-08-30T02:39:07;2.20;;;2.05;;
77870;SDS011;67067;46.850;7.578;2023-08-30T02:41:15;4.22;;;2.15;;
77870;SDS011;67067;46.850;7.578;2023-08-30T02:42:17;2.03;;;1.92;;
77870;SDS011;67067;46.850;7.578;2023-08-30T02:43:18;2.50;;;2.30;;
77870;SDS011;67067;46.850;7.578;2023-08-30T02:45:22;1.67;;;1.63;;
77870;SDS011;67067;46.850;7.578;2023-08-30T02:46:27;3.53;;;1.50;;
77870;SDS011;67067;46.850;7.578;2023-08-30T02:47:29;1.83;;;1.73;;
77870;SDS011;67067;46.850;7.578;2023-08-30T02:48:33;2.55;;;2.35;;
77870;SDS011;67067;46.850;7.578;2023-08-30T02:49:35;3.70;;;2.25;;
77870;SDS011;67067;46.850;7.578;2023-08-30T02:50:37;2.65;;;2.42;;
77870;SDS011;67067;46.850;7.578;2023-08-30T02:51:41;3.47;;;2.40;;
77870;SDS011;67067;46.850;7.578;2023-08-30T02:52:43;2.60;;;2.40;;
77870;SDS011;67067;46.850;7.578;2023-08-30T02:54:49;6.13;;;2.70;;
77870;SDS011;67067;46.850;7.578;2023-08-30T02:56:53;4.82;;;3.28;;
77870;SDS011;67067;46.850;7.578;2023-08-30T02:57:55;5.70;;;3.70;;
77870;SDS011;67067;46.850;7.578;2023-08-30T02:58:57;6.78;;;3.70;;
77870;SDS011;67067;46.850;7.578;2023-08-30T02:59:58;6.70;;;3.80;;
77870;SDS011;67067;46.850;7.578;2023-08-30T03:01:01;4.15;;;3.50;;
77870;SDS011;67067;46.850;7.578;2023-08-30T03:02:04;7.40;;;3.70;;
77870;SDS011;67067;46.850;7.578;2023-08-30T03:03:06;4.25;;;3.30;;
77870;SDS011;67067;46.850;7.578;2023-08-30T03:04:08;5.50;;;3.55;;
77870;SDS011;67067;46.850;7.578;2023-08-30T03:05:10;3.85;;;3.10;;
77870;SDS011;67067;46.850;7.578;2023-08-30T03:06:14;4.38;;;2.97;;
77870;SDS011;67067;46.850;7.578;2023-08-30T03:07:16;3.30;;;2.80;;
77870;SDS011;67067;46.850;7.578;2023-08-30T03:08:18;3.15;;;2.85;;
77870;SDS011;67067;46.850;7.578;2023-08-30T03:09:19;3.85;;;2.78;;
77870;SDS011;67067;46.850;7.578;2023-08-30T03:11:22;2.35;;;2.15;;
77870;SDS011;67067;46.850;7.578;2023-08-30T03:12:26;4.00;;;2.00;;
77870;SDS011;67067;46.850;7.578;2023-08-30T03:14:29;2.97;;;1.73;;
77870;SDS011;67067;46.850;7.578;2023-08-30T03:15:31;1.95;;;1.85;;
77870;SDS011;67067;46.850;7.578;2023-08-30T03:16:36;3.05;;;1.95;;
77870;SDS011;67067;46.850;7.578;2023-08-30T03:17:39;2.72;;;2.20;;
77870;SDS011;67067;46.850;7.578;2023-08-30T03:18:43;2.10;;;2.00;;
77870;SDS011;67067;46.850;7.578;2023-08-30T03:19:47;3.17;;;2.10;;
77870;SDS011;67067;46.850;7.578;2023-08-30T03:20:59;3.22;;;2.20;;
77870;SDS011;67067;46.850;7.578;2023-08-30T03:22:07;2.28;;;2.13;;
77870;SDS011;67067;46.850;7.578;2023-08-30T03:23:13;2.60;;;1.88;;
77870;SDS011;67067;46.850;7.578;2023-08-30T03:25:17;1.67;;;1.58;;
77870;SDS011;67067;46.850;7.578;2023-08-30T03:26:21;1.75;;;1.65;;
77870;SDS011;67067;46.850;7.578;2023-08-30T03:27:23;2.00;;;1.80;;
77870;SDS011;67067;46.850;7.578;2023-08-30T03:29:28;3.22;;;1.92;;
77870;SDS011;67067;46.850;7.578;2023-08-30T03:30:31;1.80;;;1.70;;
77870;SDS011;67067;46.850;7.578;2023-08-30T03:31:33;2.13;;;1.92;;
77870;SDS011;67067;46.850;7.578;2023-08-30T03:32:36;3.22;;;2.25;;
77870;SDS011;67067;46.850;7.578;2023-08-30T03:33:39;1.90;;;1.80;;
77870;SDS011;67067;46.850;7.578;2023-08-30T03:34:46;1.90;;;1.80;;
77870;SDS011;67067;46.850;7.578;2023-08-30T03:35:48;2.40;;;1.98;;
77870;SDS011;67067;46.850;7.578;2023-08-30T03:37:55;2.00;;;1.90;;
77870;SDS011;67067;46.850;7.578;2023-08-30T03:38:57;4.20;;;2.35;;
77870;SDS011;67067;46.850;7.578;2023-08-30T03:40:00;2.90;;;2.30;;
77870;SDS011;67067;46.850;7.578;2023-08-30T03:41:06;2.13;;;1.90;;
77870;SDS011;67067;46.850;7.578;2023-08-30T03:42:08;3.05;;;1.65;;
77870;SDS011;67067;46.850;7.578;2023-08-30T03:43:12;2.03;;;1.92;;
77870;SDS011;67067;46.850;7.578;2023-08-30T03:45:15;4.03;;;2.10;;
77870;SDS011;67067;46.850;7.578;2023-08-30T03:46:17;2.38;;;2.13;;
77870;SDS011;67067;46.850;7.578;2023-08-30T03:47:19;6.78;;;1.67;;
77870;SDS011;67067;46.850;7.578;2023-08-30T03:48:20;2.95;;;2.15;;
77870;SDS011;67067;46.850;7.578;2023-08-30T03:49:24;2.03;;;1.92;;
77870;SDS011;67067;46.850;7.578;2023-08-30T03:50:29;1.98;;;1.73;;
77870;SDS011;67067;46.850;7.578;2023-08-30T03:52:33;2.20;;;2.10;;
77870;SDS011;67067;46.850;7.578;2023-08-30T03:53:34;3.05;;;2.17;;
77870;SDS011;67067;46.850;7.578;2023-08-30T03:54:38;3.03;;;1.98;;
77870;SDS011;67067;46.850;7.578;2023-08-30T03:55:40;2.00;;;1.90;;
77870;SDS011;67067;46.850;7.578;2023-08-30T03:56:43;2.05;;;1.95;;
77870;SDS011;67067;46.850;7.578;2023-08-30T03:57:47;2.03;;;1.92;;
77870;SDS011;67067;46.850;7.578;2023-08-30T03:58:49;3.00;;;1.75;;
77870;SDS011;67067;46.850;7.578;2023-08-30T04:00:53;2.78;;;1.90;;
77870;SDS011;67067;46.850;7.578;2023-08-30T04:01:55;2.10;;;1.90;;
77870;SDS011;67067;46.850;7.578;2023-08-30T04:02:57;2.70;;;1.60;;
77870;SDS011;67067;46.850;7.578;2023-08-30T04:03:59;1.90;;;1.70;;
77870;SDS011;67067;46.850;7.578;2023-08-30T04:06:03;3.45;;;2.17;;
77870;SDS011;67067;46.850;7.578;2023-08-30T04:07:04;1.92;;;1.80;;
77870;SDS011;67067;46.850;7.578;2023-08-30T04:08:07;2.05;;;1.73;;
77870;SDS011;67067;46.850;7.578;2023-08-30T04:09:09;4.10;;;2.03;;
77870;SDS011;67067;46.850;7.578;2023-08-30T04:10:11;2.47;;;2.17;;
77870;SDS011;67067;46.850;7.578;2023-08-30T04:11:14;3.35;;;2.20;;
77870;SDS011;67067;46.850;7.578;2023-08-30T04:13:17;2.30;;;2.00;;
77870;SDS011;67067;46.850;7.578;2023-08-30T04:14:20;2.63;;;2.30;;
77870;SDS011;67067;46.850;7.578;2023-08-30T04:15:25;2.15;;;2.03;;
77870;SDS011;67067;46.850;7.578;2023-08-30T04:17:28;2.13;;;2.03;;
77870;SDS011;67067;46.850;7.578;2023-08-30T04:19:32;2.27;;;2.17;;
77870;SDS011;67067;46.850;7.578;2023-08-30T04:20:36;2.47;;;1.90;;
77870;SDS011;67067;46.850;7.578;2023-08-30T04:22:39;1.90;;;1.80;;
77870;SDS011;67067;46.850;7.578;2023-08-30T04:23:43;1.55;;;1.45;;
77870;SDS011;67067;46.850;7.578;2023-08-30T04:24:48;4.50;;;1.88;;
77870;SDS011;67067;46.850;7.578;2023-08-30T04:25:50;2.40;;;2.30;;
77870;SDS011;67067;46.850;7.578;2023-08-30T04:26:54;2.78;;;2.05;;
77870;SDS011;67067;46.850;7.578;2023-08-30T04:27:56;3.28;;;2.15;;
77870;SDS011;67067;46.850;7.578;2023-08-30T04:29:01;2.42;;;2.10;;
77870;SDS011;67067;46.850;7.578;2023-08-30T04:30:04;2.55;;;2.03;;
77870;SDS011;67067;46.850;7.578;2023-08-30T04:31:11;2.08;;;1.95;;
77870;SDS011;67067;46.850;7.578;2023-08-30T04:32:13;1.90;;;1.80;;
77870;SDS011;67067;46.850;7.578;2023-08-30T04:33:15;2.50;;;2.20;;
77870;SDS011;67067;46.850;7.578;2023-08-30T04:35:18;3.05;;;1.75;;
77870;SDS011;67067;46.850;7.578;2023-08-30T04:36:20;2.08;;;1.98;;
77870;SDS011;67067;46.850;7.578;2023-08-30T04:37:22;2.33;;;2.13;;
77870;SDS011;67067;46.850;7.578;2023-08-30T04:38:24;2.17;;;1.98;;
77870;SDS011;67067;46.850;7.578;2023-08-30T04:39:28;2.05;;;1.92;;
77870;SDS011;67067;46.850;7.578;2023-08-30T04:40:30;5.00;;;3.78;;
77870;SDS011;67067;46.850;7.578;2023-08-30T04:41:34;3.50;;;3.00;;
77870;SDS011;67067;46.850;7.578;2023-08-30T04:42:39;4.35;;;2.20;;
77870;SDS011;67067;46.850;7.578;2023-08-30T04:43:41;3.35;;;2.13;;
77870;SDS011;67067;46.850;7.578;2023-08-30T04:45:47;2.30;;;2.20;;
77870;SDS011;67067;46.850;7.578;2023-08-30T04:46:49;2.72;;;2.20;;
77870;SDS011;67067;46.850;7.578;2023-08-30T04:47:54;2.38;;;2.22;;
77870;SDS011;67067;46.850;7.578;2023-08-30T04:48:58;2.13;;;1.95;;
77870;SDS011;67067;46.850;7.578;2023-08-30T04:50:02;3.17;;;2.05;;
77870;SDS011;67067;46.850;7.578;2023-08-30T04:51:04;2.38;;;1.98;;
77870;SDS011;67067;46.850;7.578;2023-08-30T04:52:07;2.20;;;2.05;;
77870;SDS011;67067;46.850;7.578;2023-08-30T04:53:09;2.30;;;2.08;;
77870;SDS011;67067;46.850;7.578;2023-08-30T04:54:11;2.13;;;1.95;;
77870;SDS011;67067;46.850;7.578;2023-08-30T04:55:13;3.20;;;2.05;;
77870;SDS011;67067;46.850;7.578;2023-08-30T04:57:19;2.55;;;2.10;;
77870;SDS011;67067;46.850;7.578;2023-08-30T04:58:21;4.25;;;2.38;;
77870;SDS011;67067;46.850;7.578;2023-08-30T04:59:23;2.97;;;2.20;;
77870;SDS011;67067;46.850;7.578;2023-08-30T05:00:28;1.92;;;1.83;;
77870;SDS011;67067;46.850;7.578;2023-08-30T05:01:31;1.98;;;1.70;;
77870;SDS011;67067;46.850;7.578;2023-08-30T05:02:35;2.40;;;2.20;;
77870;SDS011;67067;46.850;7.578;2023-08-30T05:03:41;2.30;;;1.90;;
77870;SDS011;67067;46.850;7.578;2023-08-30T05:04:45;2.20;;;2.00;;
77870;SDS011;67067;46.850;7.578;2023-08-30T05:05:47;2.17;;;2.00;;
77870;SDS011;67067;46.850;7.578;2023-08-30T05:06:50;2.47;;;2.17;;
77870;SDS011;67067;46.850;7.578;2023-08-30T05:07:52;1.92;;;1.83;;
77870;SDS011;67067;46.850;7.578;2023-08-30T05:09:56;2.35;;;2.17;;
77870;SDS011;67067;46.850;7.578;2023-08-30T05:12:07;1.85;;;1.75;;
77870;SDS011;67067;46.850;7.578;2023-08-30T05:13:11;1.88;;;1.77;;
77870;SDS011;67067;46.850;7.578;2023-08-30T05:14:15;2.03;;;1.92;;
77870;SDS011;67067;46.850;7.578;2023-08-30T05:15:19;3.67;;;1.92;;
77870;SDS011;67067;46.850;7.578;2023-08-30T05:16:21;2.47;;;1.70;;
77870;SDS011;67067;46.850;7.578;2023-08-30T05:17:24;3.65;;;2.22;;
77870;SDS011;67067;46.850;7.578;2023-08-30T05:18:30;1.90;;;1.80;;
77870;SDS011;67067;46.850;7.578;2023-08-30T05:20:38;4.05;;;1.90;;
77870;SDS011;67067;46.850;7.578;2023-08-30T05:22:41;2.05;;;1.95;;
77870;SDS011;67067;46.850;7.578;2023-08-30T05:24:46;1.95;;;1.85;;
77870;SDS011;67067;46.850;7.578;2023-08-30T05:25:49;3.03;;;1.98;;
77870;SDS011;67067;46.850;7.578;2023-08-30T05:26:52;1.63;;;1.52;;
77870;SDS011;67067;46.850;7.578;2023-08-30T05:27:56;1.70;;;1.60;;
77870;SDS011;67067;46.850;7.578;2023-08-30T05:30:00;1.90;;;1.80;;
77870;SDS011;67067;46.850;7.578;2023-08-30T05:31:03;4.20;;;1.90;;
77870;SDS011;67067;46.850;7.578;2023-08-30T05:32:32;1.90;;;1.80;;
77870;SDS011;67067;46.850;7.578;2023-08-30T05:33:40;2.97;;;1.88;;
77870;SDS011;67067;46.850;7.578;2023-08-30T05:35:17;1.95;;;1.85;;
77870;SDS011;67067;46.850;7.578;2023-08-30T05:36:40;4.70;;;2.00;;
77870;SDS011;67067;46.850;7.578;2023-08-30T05:38:03;2.35;;;1.90;;
77870;SDS011;67067;46.850;7.578;2023-08-30T05:39:29;2.28;;;2.08;;
77870;SDS011;67067;46.850;7.578;2023-08-30T05:40:31;1.98;;;1.88;;
77870;SDS011;67067;46.850;7.578;2023-08-30T05:41:33;3.35;;;2.05;;
77870;SDS011;67067;46.850;7.578;2023-08-30T05:42:36;1.90;;;1.80;;
77870;SDS011;67067;46.850;7.578;2023-08-30T05:43:37;1.85;;;1.75;;
77870;SDS011;67067;46.850;7.578;2023-08-30T05:44:40;3.08;;;1.90;;
77870;SDS011;67067;46.850;7.578;2023-08-30T05:45:44;1.80;;;1.70;;
77870;SDS011;67067;46.850;7.578;2023-08-30T05:47:48;3.25;;;1.92;;
77870;SDS011;67067;46.850;7.578;2023-08-30T05:48:54;3.58;;;1.60;;
77870;SDS011;67067;46.850;7.578;2023-08-30T05:49:57;1.73;;;1.63;;
77870;SDS011;67067;46.850;7.578;2023-08-30T05:51:00;4.45;;;1.88;;
77870;SDS011;67067;46.850;7.578;2023-08-30T05:52:01;5.55;;;2.10;;
77870;SDS011;67067;46.850;7.578;2023-08-30T05:53:06;3.30;;;2.22;;
77870;SDS011;67067;46.850;7.578;2023-08-30T05:54:07;3.13;;;2.00;;
77870;SDS011;67067;46.850;7.578;2023-08-30T05:55:09;4.38;;;2.60;;
77870;SDS011;67067;46.850;7.578;2023-08-30T05:56:11;2.90;;;1.98;;
77870;SDS011;67067;46.850;7.578;2023-08-30T05:57:14;3.08;;;2.22;;
77870;SDS011;67067;46.850;7.578;2023-08-30T05:59:18;4.13;;;2.38;;
77870;SDS011;67067;46.850;7.578;2023-08-30T06:00:20;2.20;;;1.80;;
77870;SDS011;67067;46.850;7.578;2023-08-30T06:01:22;3.28;;;1.90;;
77870;SDS011;67067;46.850;7.578;2023-08-30T06:02:24;2.08;;;1.88;;
77870;SDS011;67067;46.850;7.578;2023-08-30T06:03:25;3.03;;;1.85;;
77870;SDS011;67067;46.850;7.578;2023-08-30T06:04:27;1.90;;;1.80;;
77870;SDS011;67067;46.850;7.578;2023-08-30T06:06:33;2.55;;;2.30;;
77870;SDS011;67067;46.850;7.578;2023-08-30T06:07:35;4.07;;;2.42;;
77870;SDS011;67067;46.850;7.578;2023-08-30T06:08:40;3.08;;;2.17;;
77870;SDS011;67067;46.850;7.578;2023-08-30T06:10:43;5.57;;;2.30;;
77870;SDS011;67067;46.850;7.578;2023-08-30T06:11:45;3.83;;;2.08;;
77870;SDS011;67067;46.850;7.578;2023-08-30T06:13:48;5.55;;;2.30;;
77870;SDS011;67067;46.850;7.578;2023-08-30T06:14:52;2.08;;;1.98;;
77870;SDS011;67067;46.850;7.578;2023-08-30T06:15:54;4.20;;;2.10;;
77870;SDS011;67067;46.850;7.578;2023-08-30T06:16:56;2.47;;;2.28;;
77870;SDS011;67067;46.850;7.578;2023-08-30T06:19:00;2.92;;;1.80;;
77870;SDS011;67067;46.850;7.578;2023-08-30T06:21:04;5.32;;;2.60;;
77870;SDS011;67067;46.850;7.578;2023-08-30T06:23:08;4.10;;;2.35;;
77870;SDS011;67067;46.850;7.578;2023-08-30T06:24:13;4.75;;;3.55;;
77870;SDS011;67067;46.850;7.578;2023-08-30T06:25:14;4.20;;;3.70;;
77870;SDS011;67067;46.850;7.578;2023-08-30T06:26:16;2.95;;;2.60;;
77870;SDS011;67067;46.850;7.578;2023-08-30T06:27:18;6.32;;;2.60;;
77870;SDS011;67067;46.850;7.578;2023-08-30T06:29:21;4.35;;;3.95;;
77870;SDS011;67067;46.850;7.578;2023-08-30T06:31:25;3.45;;;2.83;;
77870;SDS011;67067;46.850;7.578;2023-08-30T06:32:27;3.45;;;2.72;;
77870;SDS011;67067;46.850;7.578;2023-08-30T06:34:31;4.25;;;2.20;;
77870;SDS011;67067;46.850;7.578;2023-08-30T06:35:35;2.50;;;2.22;;
77870;SDS011;67067;46.850;7.578;2023-08-30T06:36:40;2.42;;;2.20;;
77870;SDS011;67067;46.850;7.578;2023-08-30T06:37:41;3.25;;;2.40;;
77870;SDS011;67067;46.850;7.578;2023-08-30T06:38:46;2.50;;;2.30;;
77870;SDS011;67067;46.850;7.578;2023-08-30T06:39:48;1.85;;;1.70;;
77870;SDS011;67067;46.850;7.578;2023-08-30T06:40:50;1.90;;;1.80;;
77870;SDS011;67067;46.850;7.578;2023-08-30T06:41:55;2.58;;;2.05;;
77870;SDS011;67067;46.850;7.578;2023-08-30T06:43:00;5.07;;;3.13;;
77870;SDS011;67067;46.850;7.578;2023-08-30T06:44:02;2.60;;;2.40;;
77870;SDS011;67067;46.850;7.578;2023-08-30T06:45:05;2.80;;;2.17;;
77870;SDS011;67067;46.850;7.578;2023-08-30T06:46:07;1.77;;;1.67;;
77870;SDS011;67067;46.850;7.578;2023-08-30T06:48:10;2.47;;;2.17;;
77870;SDS011;67067;46.850;7.578;2023-08-30T06:49:13;1.73;;;1.63;;
77870;SDS011;67067;46.850;7.578;2023-08-30T06:51:17;2.80;;;2.13;;
77870;SDS011;67067;46.850;7.578;2023-08-30T06:52:21;2.28;;;2.08;;
77870;SDS011;67067;46.850;7.578;2023-08-30T06:53:23;4.65;;;2.17;;
77870;SDS011;67067;46.850;7.578;2023-08-30T06:54:27;2.17;;;1.77;;
77870;SDS011;67067;46.850;7.578;2023-08-30T06:55:29;4.28;;;2.80;;
77870;SDS011;67067;46.850;7.578;2023-08-30T06:56:34;4.63;;;2.70;;
77870;SDS011;67067;46.850;7.578;2023-08-30T06:58:38;3.97;;;3.67;;
77870;SDS011;67067;46.850;7.578;2023-08-30T06:59:40;2.83;;;2.63;;
77870;SDS011;67067;46.850;7.578;2023-08-30T07:00:41;2.15;;;1.98;;
77870;SDS011;67067;46.850;7.578;2023-08-30T07:01:43;1.92;;;1.80;;
77870;SDS011;67067;46.850;7.578;2023-08-30T07:02:45;2.22;;;1.85;;
77870;SDS011;67067;46.850;7.578;2023-08-30T07:03:47;4.85;;;2.50;;
77870;SDS011;67067;46.850;7.578;2023-08-30T07:05:51;2.97;;;2.30;;
77870;SDS011;67067;46.850;7.578;2023-08-30T07:06:53;2.75;;;2.28;;
77870;SDS011;67067;46.850;7.578;2023-08-30T07:07:55;3.17;;;1.90;;
77870;SDS011;67067;46.850;7.578;2023-08-30T07:08:56;3.72;;;2.63;;
77870;SDS011;67067;46.850;7.578;2023-08-30T07:09:58;3.50;;;2.03;;
77870;SDS011;67067;46.850;7.578;2023-08-30T07:11:00;2.60;;;2.50;;
77870;SDS011;67067;46.850;7.578;2023-08-30T07:13:04;2.38;;;2.28;;
77870;SDS011;67067;46.850;7.578;2023-08-30T07:14:11;2.45;;;2.25;;
77870;SDS011;67067;46.850;7.578;2023-08-30T07:15:15;4.30;;;2.10;;
77870;SDS011;67067;46.850;7.578;2023-08-30T07:16:18;2.08;;;1.95;;
77870;SDS011;67067;46.850;7.578;2023-08-30T07:18:21;2.25;;;2.05;;
77870;SDS011;67067;46.850;7.578;2023-08-30T07:19:24;3.78;;;2.00;;
77870;SDS011;67067;46.850;7.578;2023-08-30T07:20:28;2.45;;;1.95;;
77870;SDS011;67067;46.850;7.578;2023-08-30T07:21:30;2.85;;;2.65;;
77870;SDS011;67067;46.850;7.578;2023-08-30T07:22:34;2.38;;;2.17;;
77870;SDS011;67067;46.850;7.578;2023-08-30T07:23:36;1.88;;;1.77;;
77870;SDS011;67067;46.850;7.578;2023-08-30T07:24:38;3.55;;;1.88;;
77870;SDS011;67067;46.850;7.578;2023-08-30T07:26:41;1.95;;;1.85;;
77870;SDS011;67067;46.850;7.578;2023-08-30T07:28:48;2.05;;;1.65;;
77870;SDS011;67067;46.850;7.578;2023-08-30T07:29:54;1.73;;;1.63;;
77870;SDS011;67067;46.850;7.578;2023-08-30T07:31:02;4.18;;;2.28;;
77870;SDS011;67067;46.850;7.578;2023-08-30T07:32:05;3.53;;;2.15;;
77870;SDS011;67067;46.850;7.578;2023-08-30T07:33:07;2.28;;;2.08;;
77870;SDS011;67067;46.850;7.578;2023-08-30T07:35:11;2.70;;;2.00;;
77870;SDS011;67067;46.850;7.578;2023-08-30T07:36:15;2.83;;;1.90;;
77870;SDS011;67067;46.850;7.578;2023-08-30T07:37:20;2.28;;;2.08;;
77870;SDS011;67067;46.850;7.578;2023-08-30T07:38:24;3.05;;;1.85;;